Address 0x9c354649a7b0c15b956096cfe85cdfa099d38f06 1

 

Overview

Balance:
124.36041945805564728 MATIC

MATIC Value:
$55.66 (@ $0.45/MATIC)
 
Txn Hash Method
Block
From
To
Value [Txn Fee]
0x39f6ec3f852305da6916770072b155d6bae2dce8ea509c37f2a3f844a983dc990x0d6f24af301795472022-06-30 15:08:453 hrs 39 mins ago0x9c354649a7b0c15b956096cfe85cdfa099d38f06OUT 0xd814b26554204245a30f8a42c289af582421bf040 MATIC0.010946482054 64.214292738
0x2023294365c33c7c21bdce9d71738c37017ff0d23ac79c421ddc360a7b009fbfHarvest All301795312022-06-30 15:08:133 hrs 40 mins ago0x9c354649a7b0c15b956096cfe85cdfa099d38f06OUT 0xd814b26554204245a30f8a42c289af582421bf040 MATIC0.00911215219 57.59566264
0x296dc61a2f330be20d1f2e2655e5c734cb9dd42a7f097287807b4e3cc788b11e0x0d6f24af301550602022-06-30 0:06:5118 hrs 41 mins ago0x9c354649a7b0c15b956096cfe85cdfa099d38f06OUT 0xd814b26554204245a30f8a42c289af582421bf040 MATIC0.010570256 62
0x6ae1162fb51407977ee9d9465ea5607a622e910006253102e32c0840911f23e6Harvest All301550422022-06-30 0:06:1518 hrs 42 mins ago0x9c354649a7b0c15b956096cfe85cdfa099d38f06OUT 0xd814b26554204245a30f8a42c289af582421bf040 MATIC0.009808958 62
0xa3c3f608bf946c131f5eb6c3ed6a66cd7068a99144ca8a9b56d9bdc476e93e850x0d6f24af301537122022-06-29 23:20:2819 hrs 28 mins ago0x9c354649a7b0c15b956096cfe85cdfa099d38f06OUT 0xd814b26554204245a30f8a42c289af582421bf040 MATIC0.01022664 60
0xc7a050008c3aa9018ab6c557a0972834e63ff730146099ca23966c6fb8c506e2Harvest All301536952022-06-29 23:19:5419 hrs 28 mins ago0x9c354649a7b0c15b956096cfe85cdfa099d38f06OUT 0xd814b26554204245a30f8a42c289af582421bf040 MATIC0.006961196 44
0x54a3c672a1c67a908dd3ffd444f719d0def37c44774fadb2c1157f823ad62f190x0d6f24af301502652022-06-29 21:13:2521 hrs 35 mins ago0x9c354649a7b0c15b956096cfe85cdfa099d38f06OUT 0xd814b26554204245a30f8a42c289af582421bf040 MATIC0.00704824 40
0xa0a3552c15cfb4a03da49b29f722db752e79bbbfd724c2b07ec7af040c091aaaHarvest All301501452022-06-29 21:07:1721 hrs 41 mins ago0x9c354649a7b0c15b956096cfe85cdfa099d38f06OUT 0xd814b26554204245a30f8a42c289af582421bf040 MATIC0.00536164 40
0x02af7d3a1b8d21fe14d4a4afd10202294102de9399e36117ad70b7aca550cdc4Deposit301440922022-06-29 17:15:361 day 1 hr ago0x9c354649a7b0c15b956096cfe85cdfa099d38f06OUT 0xd814b26554204245a30f8a42c289af582421bf040 MATIC0.011620609 91
0x0d5f5e6ec0198a15ef92db61e7ffc1ffc9c308555e4a546bcb56244b981a27d1Approve301440822022-06-29 17:15:161 day 1 hr ago0x9c354649a7b0c15b956096cfe85cdfa099d38f06OUT 0xde990994309bc08e57aca82b1a19170ad84323e80 MATIC0.002411749635 52.25440126
0x86f47e4b620f2ce3d78e1c64cf17b9643594e0a6ea30217dd369b816d8067281Add Liquidity301440632022-06-29 17:14:341 day 1 hr ago0x9c354649a7b0c15b956096cfe85cdfa099d38f06OUT SushiSwap: Router0 MATIC0.009537729622 47.986645178
0xab19879d754169d818420dd6359ec50dedbd9a7a33cf5d6ec1065c070c7b6eeeSwap Exact Token...301440342022-06-29 17:13:361 day 1 hr ago0x9c354649a7b0c15b956096cfe85cdfa099d38f06OUT SushiSwap: Router0 MATIC0.006194298435 49.410109966
0x4aa3bbf70f061812651880d72113766614071d4d8bdad406af801de2832d3669Withdraw301439902022-06-29 17:12:041 day 1 hr ago0x9c354649a7b0c15b956096cfe85cdfa099d38f06OUT 0xd814b26554204245a30f8a42c289af582421bf040 MATIC0.008488836 74
0x5be7f338b565bb5055c25331614f677beedc541cd2996279147f459af0decd6cHarvest All301439772022-06-29 17:11:381 day 1 hr ago0x9c354649a7b0c15b956096cfe85cdfa099d38f06OUT 0xd814b26554204245a30f8a42c289af582421bf040 MATIC0.011707466 74
0x4167d6632af36839fd47a21d840ce3eec8e36d9e44421a5adb74d2de1e04ad280x0d6f24af301420452022-06-29 15:58:351 day 2 hrs ago0x9c354649a7b0c15b956096cfe85cdfa099d38f06OUT 0xd814b26554204245a30f8a42c289af582421bf040 MATIC0.009035864 53
0x792cff556051ebbcef443625b30e0fbb653fd7d2495116c39c7639d0bdd0559aHarvest All301419732022-06-29 15:56:071 day 2 hrs ago0x9c354649a7b0c15b956096cfe85cdfa099d38f06OUT 0xd814b26554204245a30f8a42c289af582421bf040 MATIC0.008385077 53
0x0e84479ddacf077c7ed9dd019a35e432d05a24fd1f93d01ed6744a03150e57f80x0d6f24af301017722022-06-28 15:11:572 days 3 hrs ago0x9c354649a7b0c15b956096cfe85cdfa099d38f06OUT 0xd814b26554204245a30f8a42c289af582421bf040 MATIC0.008986914 51
0x9b87962762c0b42fc50cfef28e397eca67201abd3fff75b0fa3586562334b3e7Harvest All301017522022-06-28 15:11:132 days 3 hrs ago0x9c354649a7b0c15b956096cfe85cdfa099d38f06OUT 0xd814b26554204245a30f8a42c289af582421bf040 MATIC0.006836091 51
0x3f5614ba846efd56981b1283b60d05c5d2b6b08a855d586b174b3f3ac16c7a0aHarvest All300803612022-06-28 2:01:552 days 16 hrs ago0x9c354649a7b0c15b956096cfe85cdfa099d38f06OUT 0xd814b26554204245a30f8a42c289af582421bf040 MATIC0.009516911 71
0x24e776f45fcc8b4ff07ed03e68e802ccee60aa0b29bbd8b721316b9291c5b313Deposit300783952022-06-28 0:46:202 days 18 hrs ago0x9c354649a7b0c15b956096cfe85cdfa099d38f06OUT 0xd814b26554204245a30f8a42c289af582421bf040 MATIC0.010343619 81
0xdc7a7691cffe688e2fc2b78c318d8e082ee112c6141ad331bf23ac0621a0eb0bApprove300783902022-06-28 0:46:002 days 18 hrs ago0x9c354649a7b0c15b956096cfe85cdfa099d38f06OUT 0xde990994309bc08e57aca82b1a19170ad84323e80 MATIC0.001550806548 33.600696538
0xd635fa22556f1e93d81de30496a77fc1f8cc2af409c28974204b45ee9c14a132Add Liquidity300783782022-06-28 0:45:122 days 18 hrs ago0x9c354649a7b0c15b956096cfe85cdfa099d38f06OUT SushiSwap: Router0 MATIC0.007106433495 35.754201068
0x919ee90bb357d25a918aac7d3ccf4b15fb9f84fe294f8306159605aebf593e2bSwap Exact Token...300783652022-06-28 0:44:202 days 18 hrs ago0x9c354649a7b0c15b956096cfe85cdfa099d38f06OUT SushiSwap: Router0 MATIC0.003901495031 33.983668229
0x8099a6094600b52183ba19bbb0f05f985c3be0a1c18ccb8d7c834435b5ba3110Withdraw300783412022-06-28 0:42:442 days 18 hrs ago0x9c354649a7b0c15b956096cfe85cdfa099d38f06OUT 0xd814b26554204245a30f8a42c289af582421bf040 MATIC0.009291834 81
0x8573d1d35c64aae5a88c27368c7716d932d0a9e0a236e28f6312440c734803b5Harvest All300783252022-06-28 0:41:562 days 18 hrs ago0x9c354649a7b0c15b956096cfe85cdfa099d38f06OUT 0xd814b26554204245a30f8a42c289af582421bf040 MATIC0.012814929 81
[ Download CSV Export 
Latest 5 internal transactions
Parent Txn Hash Block From To Value
0x6d4fbc2044f0f1e911ae977e7babee9a3a28355dfd4eda20460a057de34ad74a298006142022-06-20 18:47:0310 days 1 min ago 0xc5017be80b4446988e8686168396289a9a62668e0x9c354649a7b0c15b956096cfe85cdfa099d38f0617.521940554541762402 MATIC
0x358098bb71b2b5469004fb6432f8398628d286912f0967e20b9d6dab6b67a0bc297625792022-06-19 18:16:3411 days 32 mins ago 0xc5017be80b4446988e8686168396289a9a62668e0x9c354649a7b0c15b956096cfe85cdfa099d38f0616.625452370607009675 MATIC
0x402556deedf6a9cdad7b4f552a168f5a95938c404096aa232678b878d85613c4297373112022-06-19 2:40:1011 days 16 hrs ago Polygon: Airdrop0x9c354649a7b0c15b956096cfe85cdfa099d38f060.1 MATIC
0x9d42b8404cf7d82d39db8997f5b33335373387c626542df6d0f6cd4d9ac0d302297334542022-06-19 0:20:0511 days 18 hrs ago Polygon: Airdrop0x9c354649a7b0c15b956096cfe85cdfa099d38f060.1 MATIC
0x5f6916b36effb218df5330010d53cfc591f3118277831781fe603ab78d336e84297329342022-06-19 0:00:0511 days 18 hrs ago Polygon: Airdrop0x9c354649a7b0c15b956096cfe85cdfa099d38f060.1 MATIC
[ Download CSV Export 
Loading

Contract Name:
0 MATIC

Compiler Version
0

Optimization Enabled:
0 MATIC

Other Settings:
-NA-
Block Transaction Gas Used Reward
Age Block Fee Address BC Fee Address Voting Power Jailed Incoming
Block Uncle Number Difficulty Gas Used Reward
Loading
Loading
Make sure to use the "Vote Down" button for any spammy posts, and the "Vote Up" for interesting conversations.